createdAt,value
2022-10-14T00:01:33.203Z,18.47
2022-10-14T00:04:02.582Z,17.13
2022-10-14T00:06:33.519Z,17.37
2022-10-14T00:09:06.062Z,16.87
2022-10-14T00:11:36.865Z,15.17
2022-10-14T00:14:07.795Z,22.60
2022-10-14T00:16:41.112Z,18.17
2022-10-14T00:19:12.882Z,16.00
2022-10-14T00:21:43.958Z,17.70
2022-10-14T00:24:16.199Z,15.77
2022-10-14T00:26:45.352Z,15.53
2022-10-14T00:29:17.961Z,17.07
2022-10-14T00:31:47.025Z,16.83
2022-10-14T00:34:17.635Z,16.80
2022-10-14T00:36:46.385Z,15.97
2022-10-14T00:39:21.900Z,17.30
2022-10-14T00:41:50.896Z,13.47
2022-10-14T00:45:10.654Z,18.50
2022-10-14T00:47:40.255Z,18.33
2022-10-14T00:50:11.370Z,17.10
2022-10-14T00:52:40.422Z,15.37
2022-10-14T00:55:16.101Z,18.77
2022-10-14T00:57:45.557Z,18.80
2022-10-14T01:00:17.226Z,17.40
2022-10-14T01:02:47.094Z,17.97
2022-10-14T01:05:17.795Z,17.73
2022-10-14T01:07:55.903Z,16.60
2022-10-14T01:10:34.523Z,18.63
2022-10-14T01:13:24.142Z,18.13
2022-10-14T01:16:03.209Z,17.37
2022-10-14T01:18:47.972Z,17.73
2022-10-14T01:21:21.686Z,17.77
2022-10-14T01:24:28.170Z,18.03
2022-10-14T01:27:19.294Z,18.73
2022-10-14T01:30:10.680Z,19.87
2022-10-14T01:33:02.632Z,21.60
2022-10-14T01:35:56.127Z,20.87
2022-10-14T01:38:30.831Z,20.13
2022-10-14T01:41:07.580Z,18.53
2022-10-14T01:43:37.621Z,18.50
2022-10-14T01:46:28.993Z,17.93
2022-10-14T01:49:03.403Z,17.43
2022-10-14T01:51:53.719Z,20.20
2022-10-14T01:54:27.482Z,22.27
2022-10-14T01:57:00.572Z,20.23
2022-10-14T01:59:30.930Z,19.20
2022-10-14T02:02:01.371Z,19.43
2022-10-14T02:04:30.574Z,19.77
2022-10-14T02:07:15.084Z,19.67
2022-10-14T02:09:50.484Z,18.83
2022-10-14T02:12:29.606Z,19.87
2022-10-14T02:15:07.115Z,24.93
2022-10-14T02:17:43.742Z,32.40
2022-10-14T02:20:25.134Z,28.27
2022-10-14T02:22:59.814Z,26.40
2022-10-14T02:25:33.467Z,24.90
2022-10-14T02:28:04.308Z,20.70
2022-10-14T02:30:37.366Z,22.17
2022-10-14T02:33:08.392Z,21.27
2022-10-14T02:35:40.295Z,20.73
2022-10-14T02:38:09.777Z,22.10
2022-10-14T02:40:43.091Z,20.23
2022-10-14T02:43:12.455Z,19.87
2022-10-14T02:45:43.089Z,21.87
2022-10-14T02:48:14.503Z,24.63
2022-10-14T02:50:43.624Z,23.97
2022-10-14T02:53:17.452Z,22.53
2022-10-14T02:55:47.766Z,20.93
2022-10-14T02:58:16.666Z,21.00
2022-10-14T03:00:45.607Z,19.97
2022-10-14T03:03:16.803Z,21.37
2022-10-14T03:05:46.374Z,21.27
2022-10-14T03:08:16.955Z,20.07
2022-10-14T03:10:48.513Z,20.20
2022-10-14T03:13:18.613Z,20.87
2022-10-14T03:15:50.691Z,20.50
2022-10-14T03:18:23.143Z,22.17
2022-10-14T03:20:57.071Z,20.60
2022-10-14T03:23:44.284Z,20.40
2022-10-14T03:26:14.100Z,20.43
2022-10-14T03:29:01.706Z,19.27
2022-10-14T03:31:47.647Z,21.13
2022-10-14T03:34:34.523Z,21.43
2022-10-14T03:37:07.976Z,23.50
2022-10-14T03:39:45.278Z,22.33
2022-10-14T03:42:15.242Z,25.13
2022-10-14T03:44:48.215Z,38.70
2022-10-14T03:47:24.249Z,23.73
2022-10-14T03:49:54.667Z,30.43
2022-10-14T03:52:33.421Z,26.07
2022-10-14T03:55:22.479Z,26.67
2022-10-14T03:57:52.778Z,24.20
2022-10-14T04:00:22.303Z,25.77
2022-10-14T04:03:00.889Z,27.37
2022-10-14T04:05:37.435Z,24.20
2022-10-14T04:08:12.160Z,25.20
2022-10-14T04:10:45.102Z,30.80
2022-10-14T04:13:16.617Z,28.17
2022-10-14T04:15:45.437Z,36.70
2022-10-14T04:18:22.060Z,34.47
2022-10-14T04:20:55.228Z,44.97
2022-10-14T04:23:26.753Z,39.93
2022-10-14T04:26:00.031Z,46.70
2022-10-14T04:28:29.190Z,46.70
2022-10-14T04:31:07.369Z,33.50
2022-10-14T04:33:48.378Z,31.80
2022-10-14T04:36:24.696Z,29.37
2022-10-14T04:38:54.301Z,27.03
2022-10-14T04:41:23.373Z,27.77
2022-10-14T04:43:52.977Z,26.73
2022-10-14T04:46:31.950Z,29.70
2022-10-14T04:49:06.502Z,33.87
2022-10-14T04:51:42.405Z,27.13
2022-10-14T04:54:39.960Z,24.40
2022-10-14T04:57:10.177Z,28.07
2022-10-14T04:59:40.203Z,28.33
2022-10-14T05:02:27.369Z,26.47
2022-10-14T05:05:01.149Z,25.60
2022-10-14T05:07:36.485Z,26.77
2022-10-14T05:10:20.872Z,30.00
2022-10-14T05:12:50.546Z,37.13
2022-10-14T05:15:20.416Z,30.20
2022-10-14T05:18:00.819Z,43.00
2022-10-14T05:20:48.217Z,43.30
2022-10-14T05:23:18.778Z,26.97
2022-10-14T05:25:48.266Z,33.43
2022-10-14T05:28:18.012Z,28.60
2022-10-14T05:30:47.483Z,24.93
2022-10-14T05:33:16.221Z,28.07
2022-10-14T05:36:00.799Z,24.37
2022-10-14T05:38:35.106Z,29.43
2022-10-14T05:41:05.115Z,45.53
2022-10-14T05:43:34.486Z,49.50
2022-10-14T05:46:06.971Z,56.57
2022-10-14T05:48:40.092Z,76.17
2022-10-14T05:51:09.468Z,60.50
2022-10-14T05:53:41.120Z,58.17
2022-10-14T05:56:16.033Z,59.87
2022-10-14T05:58:44.767Z,52.17
2022-10-14T06:01:13.693Z,35.63
2022-10-14T06:03:44.505Z,28.27
2022-10-14T06:06:14.769Z,25.83
2022-10-14T06:08:46.331Z,29.23
2022-10-14T06:11:15.165Z,23.57
2022-10-14T06:13:44.051Z,25.43
2022-10-14T06:16:13.383Z,28.70
2022-10-14T06:18:42.248Z,23.63
2022-10-14T06:21:12.832Z,24.07
2022-10-14T06:23:41.619Z,26.10
2022-10-14T06:26:12.008Z,30.43
2022-10-14T06:28:40.888Z,26.37
2022-10-14T06:31:09.958Z,28.67
2022-10-14T06:33:39.032Z,23.90
2022-10-14T06:36:08.580Z,33.60
2022-10-14T06:38:37.418Z,21.70
2022-10-14T06:41:06.314Z,27.47
2022-10-14T06:43:36.601Z,27.03
2022-10-14T06:46:08.864Z,29.83
2022-10-14T06:48:37.987Z,28.53
2022-10-14T06:51:06.835Z,30.20
2022-10-14T06:53:35.562Z,29.27
2022-10-14T06:56:06.397Z,23.77
2022-10-14T06:58:36.707Z,26.80
2022-10-14T07:01:06.886Z,23.70
2022-10-14T07:03:38.983Z,17.50
2022-10-14T07:06:09.593Z,18.60
2022-10-14T07:08:38.476Z,20.37
2022-10-14T07:11:07.512Z,22.77
2022-10-14T07:13:38.107Z,29.80
2022-10-14T07:16:07.513Z,22.43
2022-10-14T07:18:36.220Z,24.00
2022-10-14T07:21:05.518Z,24.03
2022-10-14T07:23:34.428Z,22.33
2022-10-14T07:26:03.383Z,31.63
2022-10-14T07:28:34.332Z,26.30
2022-10-14T07:31:06.565Z,20.37
2022-10-14T07:36:08.164Z,18.03
2022-10-14T07:38:37.645Z,21.93
2022-10-14T07:41:10.704Z,21.30
2022-10-14T07:43:39.611Z,17.67
2022-10-14T07:46:10.029Z,27.53
2022-10-14T07:48:55.796Z,17.90
2022-10-14T07:51:25.832Z,20.63
2022-10-14T07:53:55.108Z,19.60
2022-10-14T07:56:24.440Z,18.77
2022-10-14T07:58:54.098Z,21.20
2022-10-14T08:01:24.820Z,18.90
2022-10-14T08:03:53.863Z,22.60
2022-10-14T08:06:23.446Z,18.27
2022-10-14T08:08:52.470Z,25.10
2022-10-14T08:11:24.163Z,22.03
2022-10-14T08:13:53.644Z,20.40
2022-10-14T08:16:26.280Z,24.07
2022-10-14T08:18:58.265Z,26.30
2022-10-14T08:21:27.411Z,22.00
2022-10-14T08:23:56.246Z,22.40
2022-10-14T08:26:29.847Z,19.83
2022-10-14T08:29:00.189Z,21.37
2022-10-14T08:31:31.261Z,26.87
2022-10-14T08:34:00.034Z,19.73
2022-10-14T08:36:28.904Z,21.43
2022-10-14T08:38:58.126Z,27.93
2022-10-14T08:41:37.238Z,23.33
2022-10-14T08:44:16.373Z,25.50
2022-10-14T08:46:52.121Z,29.90
2022-10-14T08:49:27.612Z,28.87
2022-10-14T08:52:02.508Z,28.70
2022-10-14T08:54:40.901Z,27.87
2022-10-14T08:57:35.037Z,34.37
2022-10-14T09:00:05.397Z,26.47
2022-10-14T09:02:44.050Z,24.47
2022-10-14T09:05:17.188Z,25.93
2022-10-14T09:07:47.832Z,25.27
2022-10-14T09:10:22.340Z,23.17
2022-10-14T09:12:53.502Z,19.80
2022-10-14T09:15:28.250Z,25.07
2022-10-14T09:18:07.526Z,21.93
2022-10-14T09:20:36.482Z,26.00
2022-10-14T09:23:17.308Z,19.10
2022-10-14T09:25:55.406Z,23.53
2022-10-14T09:28:32.760Z,23.67
2022-10-14T09:31:01.605Z,26.43
2022-10-14T09:33:37.116Z,26.53
2022-10-14T09:36:13.324Z,25.53
2022-10-14T09:38:42.284Z,27.67
2022-10-14T09:41:15.245Z,27.10
2022-10-14T09:44:21.750Z,32.67
2022-10-14T09:46:54.134Z,30.57
2022-10-14T09:49:35.113Z,26.27
2022-10-14T09:52:04.298Z,78.13
2022-10-14T09:54:45.621Z,201.73
2022-10-14T09:57:20.065Z,37.90
2022-10-14T09:59:55.293Z,23.57
2022-10-14T10:02:27.072Z,60.87
2022-10-14T10:04:57.507Z,25.37
2022-10-14T10:07:31.377Z,22.83
2022-10-14T10:10:01.860Z,18.40
2022-10-14T10:12:32.959Z,17.57
2022-10-14T10:15:04.872Z,19.83
2022-10-14T10:17:36.234Z,22.03
2022-10-14T10:20:19.829Z,21.13
2022-10-14T10:22:49.201Z,21.73
2022-10-14T10:25:26.512Z,20.27
2022-10-14T10:27:58.694Z,20.13
2022-10-14T10:30:29.302Z,21.63
2022-10-14T10:33:16.560Z,29.97
2022-10-14T10:36:05.536Z,21.80
2022-10-14T10:38:41.789Z,24.77
2022-10-14T10:41:27.671Z,26.73
2022-10-14T10:44:17.140Z,23.10
2022-10-14T10:47:08.639Z,23.87
2022-10-14T10:50:16.694Z,27.93
2022-10-14T10:53:01.533Z,27.90
2022-10-14T10:55:40.499Z,20.70
2022-10-14T10:58:21.866Z,21.13
2022-10-14T11:01:02.023Z,22.50
2022-10-14T11:03:43.057Z,22.20
2022-10-14T11:06:37.678Z,25.87
2022-10-14T11:09:37.526Z,24.07
2022-10-14T11:12:15.890Z,22.07
2022-10-14T11:15:13.597Z,25.20
2022-10-14T11:17:51.490Z,26.27
2022-10-14T11:20:29.889Z,22.97
2022-10-14T11:23:23.681Z,19.83
2022-10-14T11:25:59.536Z,23.77
2022-10-14T11:28:38.475Z,19.83
2022-10-14T11:31:16.267Z,26.50
2022-10-14T11:34:04.591Z,29.30
2022-10-14T11:36:41.338Z,30.07
2022-10-14T11:39:21.663Z,24.33
2022-10-14T11:42:21.750Z,22.83
2022-10-14T11:45:11.892Z,23.67
2022-10-14T11:47:48.480Z,24.20
2022-10-14T11:50:23.431Z,26.20
2022-10-14T11:52:58.452Z,21.97
2022-10-14T11:55:31.758Z,21.53
2022-10-14T11:58:07.045Z,28.13
2022-10-14T12:00:39.329Z,27.70
2022-10-14T12:03:16.546Z,24.67
2022-10-14T12:05:49.921Z,26.33
2022-10-14T12:08:27.659Z,26.83
2022-10-14T12:11:04.605Z,27.63
2022-10-14T12:13:41.784Z,30.60
2022-10-14T12:16:15.218Z,27.20
2022-10-14T12:18:45.935Z,28.63
2022-10-14T12:21:21.095Z,22.57
2022-10-14T12:23:53.115Z,24.20
2022-10-14T12:26:47.351Z,24.87
2022-10-14T12:29:21.975Z,25.60
2022-10-14T12:32:06.758Z,28.00
2022-10-14T12:34:38.533Z,24.17
2022-10-14T12:37:50.647Z,29.90
2022-10-14T12:40:30.296Z,23.73
2022-10-14T12:43:05.634Z,24.67
2022-10-14T12:45:37.223Z,25.93
2022-10-14T12:48:14.234Z,24.07
2022-10-14T12:50:44.037Z,26.40
2022-10-14T12:53:22.800Z,26.40
2022-10-14T12:55:54.242Z,22.63
2022-10-14T12:58:30.493Z,34.83
2022-10-14T13:01:04.703Z,25.00
2022-10-14T13:03:45.394Z,30.67
2022-10-14T13:06:36.656Z,24.37
2022-10-14T13:09:31.044Z,24.87
2022-10-14T13:12:41.400Z,23.60
2022-10-14T13:15:34.461Z,22.67
2022-10-14T13:18:38.550Z,29.57
2022-10-14T13:21:10.234Z,22.23
2022-10-14T13:23:42.664Z,23.90
2022-10-14T13:26:23.617Z,23.47
2022-10-14T13:29:07.678Z,41.63
2022-10-14T13:31:41.619Z,22.43
2022-10-14T13:34:21.829Z,38.10
2022-10-14T13:37:02.229Z,29.97
2022-10-14T13:39:34.247Z,23.60
2022-10-14T13:42:03.926Z,26.33
2022-10-14T13:44:32.790Z,34.27
2022-10-14T13:47:04.029Z,25.43
2022-10-14T13:49:47.862Z,26.90
2022-10-14T13:52:25.030Z,23.83
2022-10-14T13:55:21.238Z,20.03
2022-10-14T13:58:19.285Z,21.77
2022-10-14T14:01:02.485Z,49.07
2022-10-14T14:03:37.082Z,30.37
2022-10-14T14:06:12.318Z,33.97
2022-10-14T14:08:56.769Z,23.30
2022-10-14T14:11:27.966Z,29.17
2022-10-14T14:14:01.361Z,32.20
2022-10-14T14:16:36.906Z,43.07
2022-10-14T14:19:09.521Z,51.83
2022-10-14T14:21:40.458Z,39.20
2022-10-14T14:24:18.758Z,41.20
2022-10-14T14:26:56.104Z,40.20
2022-10-14T14:29:30.112Z,53.13
2022-10-14T14:32:08.653Z,49.10
2022-10-14T14:34:39.928Z,43.47
2022-10-14T14:37:40.269Z,29.90
2022-10-14T14:40:09.422Z,46.30
2022-10-14T14:42:41.185Z,81.23
2022-10-14T14:45:18.148Z,45.13
2022-10-14T14:47:51.701Z,56.50
2022-10-14T14:50:31.234Z,43.03
2022-10-14T14:53:05.203Z,43.00
2022-10-14T14:55:40.515Z,42.73
2022-10-14T14:58:24.686Z,36.17
2022-10-14T15:00:55.243Z,37.43
2022-10-14T15:03:26.549Z,44.43
2022-10-14T15:05:59.405Z,43.47
2022-10-14T15:08:32.522Z,31.37
2022-10-14T15:11:03.020Z,28.20
2022-10-14T15:13:48.835Z,34.17
2022-10-14T15:16:36.131Z,37.87
2022-10-14T15:19:39.983Z,30.87
2022-10-14T15:22:31.744Z,37.33
2022-10-14T15:25:14.100Z,41.07
2022-10-14T15:27:55.105Z,36.53
2022-10-14T15:30:28.447Z,34.77
2022-10-14T15:33:02.996Z,40.10
2022-10-14T15:35:39.608Z,46.77
2022-10-14T15:38:15.950Z,37.30
2022-10-14T15:40:48.449Z,47.97
2022-10-14T15:43:24.050Z,35.60
2022-10-14T15:46:13.172Z,46.43
2022-10-14T15:48:47.566Z,33.13
2022-10-14T15:51:35.107Z,28.60
2022-10-14T15:54:03.955Z,30.47
2022-10-14T15:56:52.820Z,26.90
2022-10-14T15:59:21.971Z,31.43
2022-10-14T16:01:51.101Z,24.73
2022-10-14T16:04:42.004Z,32.23
2022-10-14T16:07:24.039Z,30.93
2022-10-14T16:09:53.709Z,33.67
2022-10-14T16:12:23.823Z,55.10
2022-10-14T16:14:52.516Z,33.73
2022-10-14T16:17:21.708Z,42.67
2022-10-14T16:19:51.027Z,45.03
2022-10-14T16:22:19.824Z,39.00
2022-10-14T16:24:48.806Z,31.97
2022-10-14T16:27:17.890Z,37.17
2022-10-14T16:29:48.063Z,38.07
2022-10-14T16:32:17.623Z,37.27
2022-10-14T16:34:46.536Z,36.30
2022-10-14T16:37:15.168Z,28.87
2022-10-14T16:39:44.030Z,37.67
2022-10-14T16:42:13.738Z,37.70
2022-10-14T16:44:42.708Z,34.77
2022-10-14T16:47:19.881Z,33.27
2022-10-14T16:49:52.117Z,33.57
2022-10-14T16:52:21.557Z,22.90
2022-10-14T16:54:50.608Z,35.43
2022-10-14T16:57:19.684Z,32.90
2022-10-14T16:59:48.371Z,27.60
2022-10-14T17:02:21.756Z,29.43
2022-10-14T17:04:51.642Z,34.23
2022-10-14T17:07:20.486Z,36.87
2022-10-14T17:09:49.342Z,34.87
2022-10-14T17:12:19.507Z,34.73
2022-10-14T17:14:48.504Z,50.73
2022-10-14T17:17:18.845Z,59.40
2022-10-14T17:19:48.875Z,41.73
2022-10-14T17:22:19.880Z,35.47
2022-10-14T17:24:49.399Z,45.63
2022-10-14T17:27:19.671Z,43.30
2022-10-14T17:29:48.643Z,48.57
2022-10-14T17:32:18.916Z,67.67
2022-10-14T17:34:49.602Z,56.47
2022-10-14T17:37:21.346Z,65.27
2022-10-14T17:39:50.162Z,53.57
2022-10-14T17:42:19.061Z,64.53
2022-10-14T17:44:49.395Z,61.73
2022-10-14T17:47:20.129Z,71.20
2022-10-14T17:49:50.610Z,106.03
2022-10-14T17:52:19.543Z,92.73
2022-10-14T17:54:48.355Z,93.40
2022-10-14T17:57:17.126Z,95.47
2022-10-14T17:59:45.889Z,82.77
2022-10-14T18:02:20.331Z,71.07
2022-10-14T18:05:08.535Z,77.70
2022-10-14T18:07:39.036Z,50.03
2022-10-14T18:10:08.275Z,42.80
2022-10-14T18:12:37.088Z,39.13
2022-10-14T18:15:06.745Z,37.63
2022-10-14T18:17:37.545Z,34.67
2022-10-14T18:20:07.357Z,27.40
2022-10-14T18:22:36.431Z,34.60
2022-10-14T18:25:06.891Z,30.93
2022-10-14T18:27:35.723Z,32.37
2022-10-14T18:30:04.647Z,28.83
2022-10-14T18:32:33.470Z,26.03
2022-10-14T18:35:05.375Z,28.33
2022-10-14T18:37:34.658Z,24.63
2022-10-14T18:40:03.398Z,29.43
2022-10-14T18:42:32.128Z,27.50
2022-10-14T18:45:00.998Z,29.17
2022-10-14T18:47:29.694Z,25.47
2022-10-14T18:49:59.884Z,24.43
2022-10-14T18:52:30.300Z,23.53
2022-10-14T18:54:59.198Z,26.83
2022-10-14T18:57:27.951Z,25.57
2022-10-14T18:59:56.884Z,30.90
2022-10-14T19:02:26.022Z,23.20
2022-10-14T19:04:56.178Z,27.47
2022-10-14T19:07:26.166Z,27.33
2022-10-14T19:09:57.920Z,22.17
2022-10-14T19:12:45.130Z,24.83
2022-10-14T19:15:14.050Z,23.87
2022-10-14T19:17:43.066Z,24.77
2022-10-14T19:20:11.982Z,30.73
2022-10-14T19:22:44.993Z,35.73
2022-10-14T19:25:16.683Z,33.20
2022-10-14T19:27:45.742Z,28.67
2022-10-14T19:30:14.733Z,26.57
2022-10-14T19:32:43.642Z,22.90
2022-10-14T19:35:12.546Z,23.93
2022-10-14T19:37:41.294Z,26.77
2022-10-14T19:40:10.945Z,29.13
2022-10-14T19:42:41.239Z,21.67
2022-10-14T19:45:10.566Z,19.33
2022-10-14T19:47:39.315Z,22.87
2022-10-14T19:50:09.215Z,26.83
2022-10-14T19:52:38.194Z,23.30
2022-10-14T19:55:07.979Z,25.70
2022-10-14T19:57:36.829Z,22.83
2022-10-14T20:00:08.415Z,24.63
2022-10-14T20:05:07.970Z,24.07
2022-10-14T20:07:36.795Z,20.37
2022-10-14T20:10:06.151Z,18.97
2022-10-14T20:12:35.103Z,20.40
2022-10-14T20:15:04.054Z,21.50
2022-10-14T20:17:34.799Z,24.43
2022-10-14T20:20:03.644Z,21.80
2022-10-14T20:22:33.628Z,24.57
2022-10-14T20:25:02.627Z,30.33
2022-10-14T20:27:31.596Z,32.77
2022-10-14T20:30:00.694Z,26.17
2022-10-14T20:32:30.137Z,20.93
2022-10-14T20:35:00.464Z,36.43
2022-10-14T20:37:33.020Z,20.57
2022-10-14T20:40:01.933Z,21.10
2022-10-14T20:42:30.658Z,22.93
2022-10-14T20:44:59.568Z,26.77
2022-10-14T20:47:28.472Z,20.43
2022-10-14T20:49:57.366Z,24.70
2022-10-14T20:52:27.666Z,23.90
2022-10-14T20:54:56.571Z,24.97
2022-10-14T20:57:25.485Z,22.70
2022-10-14T20:59:54.465Z,23.47
2022-10-14T21:02:23.432Z,19.93
2022-10-14T21:04:53.474Z,20.90
2022-10-14T21:07:23.347Z,21.30
2022-10-14T21:09:53.941Z,22.37
2022-10-14T21:12:23.213Z,19.83
2022-10-14T21:14:52.186Z,18.30
2022-10-14T21:17:21.053Z,21.37
2022-10-14T21:19:50.271Z,18.90
2022-10-14T21:22:19.114Z,22.43
2022-10-14T21:24:47.989Z,21.90
2022-10-14T21:27:18.199Z,18.67
2022-10-14T21:29:48.907Z,18.13
2022-10-14T21:32:18.033Z,20.30
2022-10-14T21:34:46.820Z,27.23
2022-10-14T21:37:17.953Z,23.77
2022-10-14T21:39:46.789Z,21.93
2022-10-14T21:42:15.708Z,21.67
2022-10-14T21:44:45.874Z,22.03
2022-10-14T21:47:15.290Z,20.70
2022-10-14T21:49:44.227Z,20.73
2022-10-14T21:52:13.154Z,24.27
2022-10-14T21:54:41.816Z,26.93
2022-10-14T21:57:10.854Z,24.67
2022-10-14T21:59:39.602Z,21.23
2022-10-14T22:02:10.138Z,24.23
2022-10-14T22:04:39.049Z,27.97
2022-10-14T22:07:07.835Z,32.63
2022-10-14T22:09:36.588Z,32.47
2022-10-14T22:12:05.749Z,28.73
2022-10-14T22:14:34.492Z,27.77
2022-10-14T22:17:03.285Z,29.03
2022-10-14T22:19:33.607Z,22.50
2022-10-14T22:22:03.440Z,19.77
2022-10-14T22:24:32.367Z,18.97
2022-10-14T22:27:01.189Z,19.10
2022-10-14T22:29:29.983Z,21.80
2022-10-14T22:31:58.894Z,17.83
2022-10-14T22:34:27.638Z,19.77
2022-10-14T22:36:58.095Z,19.17
2022-10-14T22:39:27.370Z,21.60
2022-10-14T22:41:56.226Z,19.00
2022-10-14T22:44:24.941Z,19.83
2022-10-14T22:46:55.245Z,19.97
2022-10-14T22:49:24.219Z,18.43
2022-10-14T22:51:55.948Z,16.50
2022-10-14T22:54:27.592Z,17.40
2022-10-14T22:56:56.462Z,18.30
2022-10-14T22:59:25.457Z,16.83
2022-10-14T23:01:54.291Z,19.40
2022-10-14T23:04:23.133Z,15.83
2022-10-14T23:06:52.865Z,18.67
2022-10-14T23:09:21.715Z,16.00
2022-10-14T23:11:51.948Z,16.63
2022-10-14T23:14:20.678Z,21.67
2022-10-14T23:16:49.421Z,19.83
2022-10-14T23:19:18.092Z,19.20
2022-10-14T23:21:46.922Z,21.63
2022-10-14T23:24:15.927Z,19.63
2022-10-14T23:26:44.827Z,19.27
2022-10-14T23:29:15.132Z,19.90
2022-10-14T23:31:44.106Z,17.30
2022-10-14T23:34:14.383Z,18.33
2022-10-14T23:36:43.674Z,19.33
2022-10-14T23:39:12.852Z,22.00
2022-10-14T23:41:41.707Z,18.60
2022-10-14T23:44:12.349Z,18.90
2022-10-14T23:47:01.089Z,17.37
2022-10-14T23:49:29.867Z,21.00
2022-10-14T23:51:58.640Z,18.80
2022-10-14T23:54:27.627Z,22.83
2022-10-14T23:56:56.589Z,21.53
2022-10-14T23:59:25.522Z,20.83
